Time;durP1;ratioP1;P1;durP2;ratioP2;P2;SDS_P1;SDS_P2;PMS_P1;PMS_P2;Temp;Humidity;BMP_temperature;BMP_pressure;BME280_temperature;BME280_humidity;BME280_pressure;Samples;Min_cycle;Max_cycle;Signal;HPM_P1;HPM_P2
2023/04/21 00:02:21;;;;;;;1.40;1.30;;;21.50;65.70;;;;;;5056702;28;20195;-64
2023/04/21 00:04:48;;;;;;;2.25;1.63;;;21.50;65.60;;;;;;5055518;28;20195;-64
2023/04/21 00:07:15;;;;;;;2.40;1.75;;;21.50;65.60;;;;;;5051128;28;20213;-64
2023/04/21 00:09:42;;;;;;;2.00;1.75;;;21.50;65.60;;;;;;5055183;28;20237;-63
2023/04/21 00:12:10;;;;;;;1.88;1.60;;;21.50;65.60;;;;;;5054315;28;20648;-64
2023/04/21 00:14:38;;;;;;;2.00;1.50;;;21.50;65.60;;;;;;5059998;28;20230;-64
2023/04/21 00:17:05;;;;;;;2.20;1.95;;;21.50;65.60;;;;;;5059502;28;20203;-64
2023/04/21 00:19:32;;;;;;;1.60;1.33;;;21.50;65.60;;;;;;5061481;28;20207;-63
2023/04/21 00:22:00;;;;;;;1.80;1.40;;;21.50;65.60;;;;;;5054482;28;20221;-65
2023/04/21 00:24:26;;;;;;;1.80;1.70;;;21.50;65.70;;;;;;5051140;28;20222;-64
2023/04/21 00:26:53;;;;;;;2.35;1.88;;;21.50;65.70;;;;;;5061554;28;20214;-63
2023/04/21 00:29:21;;;;;;;3.05;1.75;;;21.40;65.60;;;;;;5049408;28;20199;-64
2023/04/21 00:31:48;;;;;;;1.65;1.55;;;21.40;65.70;;;;;;5053445;28;20202;-64
2023/04/21 00:34:15;;;;;;;2.55;1.90;;;21.40;65.70;;;;;;5052834;28;20591;-64
2023/04/21 00:36:41;;;;;;;3.28;1.67;;;21.40;65.70;;;;;;5053899;28;20297;-63
2023/04/21 00:39:09;;;;;;;2.00;1.80;;;21.40;65.70;;;;;;5052244;28;20533;-64
2023/04/21 00:41:38;;;;;;;1.88;1.70;;;21.40;65.70;;;;;;5058598;28;20225;-64
2023/04/21 00:44:06;;;;;;;1.55;1.30;;;21.40;65.90;;;;;;5057421;28;20237;-64
2023/04/21 00:46:35;;;;;;;2.55;1.60;;;21.40;65.80;;;;;;5057320;28;20206;-63
2023/04/21 00:49:05;;;;;;;1.85;1.65;;;21.30;65.70;;;;;;5063477;28;20252;-63
2023/04/21 00:51:34;;;;;;;1.80;1.48;;;21.40;65.80;;;;;;5052227;28;20265;-62
2023/04/21 00:54:02;;;;;;;2.95;2.00;;;21.30;65.80;;;;;;5058527;28;20215;-63
2023/04/21 00:56:31;;;;;;;1.83;1.63;;;21.30;65.80;;;;;;5054491;28;20196;-64
2023/04/21 00:58:58;;;;;;;1.88;1.70;;;21.30;65.80;;;;;;5057114;28;20411;-64
2023/04/21 01:01:26;;;;;;;1.70;1.60;;;21.30;65.90;;;;;;5049811;28;20207;-61
2023/04/21 01:03:58;;;;;;;1.83;1.50;;;21.30;65.90;;;;;;5048843;28;20207;-64
2023/04/21 01:06:25;;;;;;;1.60;1.33;;;21.30;66.00;;;;;;5051851;28;21051;-63
2023/04/21 01:08:52;;;;;;;1.75;1.45;;;21.30;66.10;;;;;;5051712;28;20223;-64
2023/04/21 01:11:20;;;;;;;1.73;1.60;;;21.30;66.00;;;;;;5051088;28;20578;-64
2023/04/21 01:13:47;;;;;;;2.42;1.55;;;21.30;66.80;;;;;;5051548;28;20310;-63
2023/04/21 01:16:16;;;;;;;2.25;1.58;;;21.30;66.00;;;;;;5052936;28;20290;-64
2023/04/21 01:18:43;;;;;;;1.60;1.30;;;21.30;66.00;;;;;;5046800;28;20207;-64
2023/04/21 01:21:11;;;;;;;1.85;1.60;;;21.30;65.90;;;;;;5060137;28;20248;-63
2023/04/21 01:23:40;;;;;;;1.90;1.77;;;21.30;65.90;;;;;;5052812;28;20721;-64
2023/04/21 01:26:06;;;;;;;2.60;1.80;;;21.30;65.90;;;;;;5057872;28;20204;-63
2023/04/21 01:28:33;;;;;;;1.50;1.40;;;21.20;65.80;;;;;;5049457;28;20195;-64
2023/04/21 01:31:01;;;;;;;1.75;1.65;;;21.20;65.80;;;;;;5061857;28;20195;-63
2023/04/21 01:33:28;;;;;;;1.75;1.65;;;21.20;65.90;;;;;;5060111;28;20217;-64
2023/04/21 01:35:55;;;;;;;2.13;1.90;;;21.20;65.90;;;;;;5049059;28;20187;-62
2023/04/21 01:38:22;;;;;;;2.00;1.83;;;21.20;65.90;;;;;;5051508;28;20290;-64
2023/04/21 01:40:52;;;;;;;3.10;1.90;;;21.20;65.90;;;;;;5057032;28;20556;-62
2023/04/21 01:43:21;;;;;;;2.17;2.00;;;21.20;66.00;;;;;;5056303;28;20617;-64
2023/04/21 01:45:48;;;;;;;1.77;1.67;;;21.20;66.00;;;;;;5054316;28;20277;-63
2023/04/21 01:48:15;;;;;;;1.60;1.50;;;21.10;65.80;;;;;;5054549;28;20191;-64
2023/04/21 01:50:42;;;;;;;1.80;1.70;;;21.10;65.90;;;;;;5060778;28;20655;-63
2023/04/21 01:53:09;;;;;;;1.63;1.52;;;21.10;65.90;;;;;;5053922;28;20192;-62
2023/04/21 01:55:36;;;;;;;1.88;1.45;;;21.10;65.80;;;;;;5050177;28;20249;-63
2023/04/21 01:58:04;;;;;;;1.75;1.50;;;21.10;65.90;;;;;;5054147;28;20199;-63
2023/04/21 02:00:30;;;;;;;2.28;1.65;;;21.10;65.90;;;;;;5056588;28;20203;-62
2023/04/21 02:02:57;;;;;;;1.50;1.40;;;21.10;65.90;;;;;;5055672;28;20206;-64
2023/04/21 02:05:23;;;;;;;2.97;1.60;;;21.10;65.90;;;;;;5057092;28;20241;-64
2023/04/21 02:07:50;;;;;;;2.38;1.70;;;21.00;65.80;;;;;;5054894;28;20202;-62
2023/04/21 02:10:17;;;;;;;2.03;1.63;;;21.10;66.00;;;;;;5050499;28;20203;-61
2023/04/21 02:12:44;;;;;;;1.80;1.52;;;21.00;65.90;;;;;;5053799;28;20199;-64
2023/04/21 02:15:12;;;;;;;1.80;1.70;;;21.00;65.90;;;;;;5049621;28;20222;-62
2023/04/21 02:17:38;;;;;;;1.80;1.50;;;21.00;65.90;;;;;;5057575;28;20198;-62
2023/04/21 02:20:07;;;;;;;2.63;1.80;;;21.00;65.90;;;;;;5052854;28;20225;-63
2023/04/21 02:22:33;;;;;;;1.63;1.45;;;21.00;65.90;;;;;;5047336;28;20284;-64
2023/04/21 02:25:00;;;;;;;1.73;1.38;;;21.00;65.90;;;;;;5052555;28;20224;-62
2023/04/21 02:27:27;;;;;;;3.15;1.90;;;21.00;65.90;;;;;;5063180;28;20202;-64
2023/04/21 02:29:53;;;;;;;2.10;1.38;;;21.00;65.90;;;;;;5044730;28;20195;-63
2023/04/21 02:32:21;;;;;;;2.30;1.88;;;21.00;66.00;;;;;;5054542;28;20253;-63
2023/04/21 02:34:48;;;;;;;1.88;1.77;;;20.90;65.90;;;;;;5050054;28;20299;-63
2023/04/21 02:37:15;;;;;;;1.50;1.30;;;21.00;66.10;;;;;;5046652;28;20210;-63
2023/04/21 02:39:42;;;;;;;2.22;1.77;;;21.00;66.10;;;;;;5054983;28;20202;-63
2023/04/21 02:42:09;;;;;;;2.10;1.90;;;21.00;66.00;;;;;;5053882;28;20196;-62
2023/04/21 02:44:37;;;;;;;1.70;1.60;;;21.00;66.00;;;;;;5044768;28;20275;-64
2023/04/21 02:47:04;;;;;;;1.55;1.45;;;21.00;66.00;;;;;;5059882;28;20195;-64
2023/04/21 02:49:32;;;;;;;1.77;1.52;;;21.00;66.00;;;;;;5050977;28;20253;-64
2023/04/21 02:51:58;;;;;;;2.20;1.55;;;21.00;66.00;;;;;;5045647;28;20195;-64
2023/04/21 02:54:25;;;;;;;1.52;1.42;;;20.90;65.90;;;;;;5045775;28;20380;-63
2023/04/21 02:56:52;;;;;;;2.30;1.63;;;21.00;66.00;;;;;;5054676;28;20199;-64
2023/04/21 02:59:18;;;;;;;1.60;1.50;;;20.90;65.90;;;;;;5044601;28;20249;-62
2023/04/21 03:01:47;;;;;;;2.03;1.92;;;20.90;65.90;;;;;;5049499;28;20195;-64
2023/04/21 03:04:14;;;;;;;1.75;1.50;;;20.90;65.90;;;;;;5050073;28;20211;-63
2023/04/21 03:06:42;;;;;;;1.73;1.63;;;20.90;65.90;;;;;;5051960;28;20622;-63
2023/04/21 03:09:09;;;;;;;1.70;1.40;;;20.90;65.90;;;;;;5058739;28;20703;-64
2023/04/21 03:11:36;;;;;;;1.48;1.38;;;20.90;65.90;;;;;;5050998;28;20200;-63
2023/04/21 03:14:02;;;;;;;2.45;1.90;;;20.90;65.90;;;;;;5047654;28;20269;-64
2023/04/21 03:16:29;;;;;;;2.17;2.03;;;20.90;65.90;;;;;;5045479;28;20341;-63
2023/04/21 03:18:56;;;;;;;2.55;1.60;;;20.90;65.90;;;;;;5048930;28;20694;-63
2023/04/21 03:21:22;;;;;;;1.73;1.58;;;20.90;65.90;;;;;;5055451;28;20606;-64
2023/04/21 03:23:50;;;;;;;1.90;1.70;;;20.80;65.70;;;;;;5050481;28;20363;-64
2023/04/21 03:26:17;;;;;;;2.40;1.90;;;20.80;65.70;;;;;;5060176;28;20210;-64
2023/04/21 03:28:46;;;;;;;2.00;1.80;;;20.80;65.70;;;;;;5049142;28;20210;-61
2023/04/21 03:31:13;;;;;;;1.52;1.42;;;20.90;65.90;;;;;;5048082;28;20211;-62
2023/04/21 03:33:40;;;;;;;2.40;2.20;;;20.80;65.70;;;;;;5054788;28;20617;-64
2023/04/21 03:36:07;;;;;;;2.33;1.70;;;20.80;65.60;;;;;;5063148;28;20256;-63
2023/04/21 03:38:34;;;;;;;1.92;1.70;;;20.80;65.60;;;;;;5052110;28;20671;-64
2023/04/21 03:41:03;;;;;;;1.95;1.85;;;20.80;65.60;;;;;;5055811;28;20195;-64
2023/04/21 03:43:30;;;;;;;2.28;2.08;;;20.80;65.70;;;;;;5054598;28;20257;-64
2023/04/21 03:45:57;;;;;;;2.38;2.17;;;20.80;65.70;;;;;;5052483;28;20194;-63
2023/04/21 03:48:23;;;;;;;2.40;2.20;;;20.80;65.70;;;;;;5060166;28;20202;-63
2023/04/21 03:50:50;;;;;;;2.22;1.90;;;20.80;65.70;;;;;;5048615;28;20273;-64
2023/04/21 03:53:17;;;;;;;2.45;2.25;;;20.70;65.70;;;;;;5051500;28;20234;-64
2023/04/21 03:55:47;;;;;;;2.55;2.35;;;20.70;65.80;;;;;;5056708;28;20218;-62
2023/04/21 03:58:15;;;;;;;2.35;2.15;;;20.80;65.90;;;;;;5046198;28;20198;-63
2023/04/21 04:00:42;;;;;;;1.83;1.70;;;20.70;65.70;;;;;;5052644;28;20199;-63
2023/04/21 04:03:09;;;;;;;2.00;1.80;;;20.70;65.80;;;;;;5061669;28;20606;-63
2023/04/21 04:05:35;;;;;;;1.63;1.52;;;20.70;65.80;;;;;;5056415;28;20752;-64
2023/04/21 04:08:02;;;;;;;2.20;2.00;;;20.70;65.80;;;;;;5051624;28;20188;-64
2023/04/21 04:10:29;;;;;;;3.38;1.75;;;20.70;65.80;;;;;;5059352;28;20302;-64
2023/04/21 04:12:56;;;;;;;2.63;2.00;;;20.70;65.90;;;;;;5048739;28;20667;-63
2023/04/21 04:15:24;;;;;;;2.05;1.88;;;20.70;66.00;;;;;;5054134;28;20628;-64
2023/04/21 04:17:50;;;;;;;2.40;2.20;;;20.70;66.00;;;;;;5051876;28;20654;-63
2023/04/21 04:20:17;;;;;;;1.80;1.60;;;20.70;66.00;;;;;;5061103;28;20650;-63
2023/04/21 04:22:44;;;;;;;1.70;1.60;;;20.70;66.10;;;;;;5061287;28;20206;-63
2023/04/21 04:25:11;;;;;;;1.60;1.50;;;20.70;66.00;;;;;;5057010;28;20198;-63
2023/04/21 04:27:38;;;;;;;1.50;1.40;;;20.70;66.80;;;;;;5055362;28;20771;-64
2023/04/21 04:30:06;;;;;;;2.17;1.63;;;20.70;66.00;;;;;;5052195;28;20202;-63
2023/04/21 04:32:34;;;;;;;1.67;1.58;;;20.70;66.00;;;;;;5054865;28;20199;-63
2023/04/21 04:35:01;;;;;;;1.95;1.80;;;20.70;66.00;;;;;;5054029;28;20574;-63
2023/04/21 04:37:28;;;;;;;1.60;1.50;;;20.70;66.00;;;;;;5060208;28;20286;-64
2023/04/21 04:39:55;;;;;;;1.95;1.85;;;20.70;65.90;;;;;;5060175;28;20694;-64
2023/04/21 04:42:24;;;;;;;1.70;1.60;;;20.70;65.90;;;;;;5056102;28;20611;-64
2023/04/21 04:44:53;;;;;;;1.75;1.65;;;20.60;65.80;;;;;;5046155;28;20245;-63
2023/04/21 04:47:20;;;;;;;1.80;1.70;;;20.70;66.00;;;;;;5052400;28;20222;-64
2023/04/21 04:49:48;;;;;;;1.77;1.67;;;20.60;65.80;;;;;;5054276;28;20190;-63
2023/04/21 04:52:15;;;;;;;1.80;1.70;;;20.60;65.90;;;;;;5050737;28;20257;-63
2023/04/21 04:54:41;;;;;;;1.92;1.75;;;20.70;66.00;;;;;;5054495;28;20238;-63
2023/04/21 04:57:08;;;;;;;1.75;1.65;;;20.60;65.90;;;;;;5049007;28;20191;-62
2023/04/21 04:59:35;;;;;;;2.22;2.03;;;20.70;66.80;;;;;;5052985;28;20191;-63
2023/04/21 05:02:02;;;;;;;1.60;1.50;;;20.70;66.00;;;;;;5054214;28;20280;-63
2023/04/21 05:04:29;;;;;;;1.50;1.40;;;20.60;65.80;;;;;;5053670;28;20203;-63
2023/04/21 05:06:57;;;;;;;1.42;1.33;;;20.60;65.90;;;;;;5053276;28;20206;-64
2023/04/21 05:09:24;;;;;;;1.88;1.67;;;20.60;65.90;;;;;;5057676;28;20207;-64
2023/04/21 05:11:51;;;;;;;2.38;1.63;;;20.60;65.80;;;;;;5052121;28;20187;-64
2023/04/21 05:14:18;;;;;;;2.00;1.80;;;20.60;66.00;;;;;;5046235;28;20223;-62
2023/04/21 05:16:45;;;;;;;2.10;1.90;;;20.60;65.90;;;;;;5053828;28;20617;-63
2023/04/21 05:19:12;;;;;;;2.35;1.55;;;20.60;66.10;;;;;;5057147;28;20663;-64
2023/04/21 05:21:38;;;;;;;2.08;1.88;;;20.60;66.00;;;;;;5050529;28;20265;-63
2023/04/21 05:24:06;;;;;;;1.90;1.80;;;20.70;66.50;;;;;;5056321;28;20249;-63
2023/04/21 05:26:33;;;;;;;2.20;2.00;;;20.60;66.00;;;;;;5050243;28;20202;-63
2023/04/21 05:29:00;;;;;;;1.65;1.50;;;20.60;65.90;;;;;;5051365;28;20600;-63
2023/04/21 05:31:26;;;;;;;1.83;1.73;;;20.70;66.00;;;;;;5046769;28;20610;-63
2023/04/21 05:33:53;;;;;;;2.20;1.98;;;20.70;66.00;;;;;;5049572;28;20256;-62
2023/04/21 05:36:20;;;;;;;2.20;2.00;;;20.70;66.00;;;;;;5050834;28;20521;-62
2023/04/21 05:38:47;;;;;;;1.90;1.80;;;20.70;65.90;;;;;;5051480;28;20622;-63
2023/04/21 05:41:15;;;;;;;1.90;1.80;;;20.80;66.00;;;;;;5050700;28;20601;-63
2023/04/21 05:43:41;;;;;;;1.70;1.60;;;20.80;66.00;;;;;;5049446;28;20219;-63
2023/04/21 05:46:09;;;;;;;1.70;1.60;;;20.80;65.90;;;;;;5041813;28;20638;-63
2023/04/21 05:48:36;;;;;;;1.70;1.60;;;20.80;65.90;;;;;;5053289;28;20252;-63
2023/04/21 05:51:09;;;;;;;2.10;1.42;;;20.80;65.90;;;;;;5054353;28;20200;-61
2023/04/21 05:53:36;;;;;;;1.70;1.60;;;20.80;65.90;;;;;;5049132;28;20203;-62
2023/04/21 05:56:03;;;;;;;1.92;1.73;;;20.70;65.70;;;;;;5055520;28;20247;-61
2023/04/21 05:58:31;;;;;;;2.17;1.98;;;20.80;65.90;;;;;;5053489;28;21169;-63
2023/04/21 06:00:57;;;;;;;1.92;1.75;;;20.70;65.70;;;;;;5049012;28;20199;-63
2023/04/21 06:03:24;;;;;;;1.75;1.65;;;20.80;65.90;;;;;;5051521;28;20249;-63
2023/04/21 06:05:54;;;;;;;1.50;1.30;;;20.80;65.90;;;;;;5047617;28;20203;-62
2023/04/21 06:08:21;;;;;;;1.73;1.55;;;20.80;65.90;;;;;;5055972;28;20559;-63
2023/04/21 06:10:48;;;;;;;2.03;1.40;;;20.80;65.90;;;;;;5056071;28;20252;-63
2023/04/21 06:13:15;;;;;;;1.70;1.60;;;20.80;65.80;;;;;;5047755;28;20198;-62
2023/04/21 06:15:43;;;;;;;1.73;1.52;;;20.90;66.00;;;;;;5043856;28;20219;-61
2023/04/21 06:18:10;;;;;;;1.70;1.45;;;20.90;65.90;;;;;;5053275;28;20195;-60
2023/04/21 06:20:36;;;;;;;2.03;1.70;;;20.90;65.90;;;;;;5057060;28;20196;-63
2023/04/21 06:23:03;;;;;;;1.70;1.60;;;20.90;65.90;;;;;;5053262;28;20211;-62
2023/04/21 06:25:30;;;;;;;1.63;1.35;;;20.90;65.80;;;;;;5052630;28;20232;-62
2023/04/21 06:27:56;;;;;;;1.58;1.48;;;21.00;65.90;;;;;;5051740;28;20606;-62
2023/04/21 06:30:23;;;;;;;1.83;1.73;;;21.00;65.90;;;;;;5050372;28;20602;-62
2023/04/21 06:32:51;;;;;;;2.33;1.85;;;21.00;65.90;;;;;;5051150;28;20647;-63
2023/04/21 06:35:19;;;;;;;1.88;1.77;;;21.00;65.80;;;;;;5054779;28;20219;-61
2023/04/21 06:37:46;;;;;;;1.95;1.85;;;21.00;65.70;;;;;;5047104;28;20689;-63
2023/04/21 06:40:14;;;;;;;1.52;1.42;;;21.00;65.70;;;;;;5054883;28;20555;-63
2023/04/21 06:42:41;;;;;;;1.73;1.45;;;21.10;65.90;;;;;;5047366;28;20280;-61
2023/04/21 06:45:09;;;;;;;1.92;1.70;;;21.10;65.80;;;;;;5042868;28;20252;-62
2023/04/21 06:47:35;;;;;;;1.40;1.30;;;21.10;65.80;;;;;;5048282;28;20251;-62
2023/04/21 06:50:04;;;;;;;2.10;1.90;;;21.10;67.00;;;;;;5046207;28;20285;-62
2023/04/21 06:52:31;;;;;;;2.17;1.98;;;21.10;66.90;;;;;;5051263;28;20192;-62
2023/04/21 06:54:58;;;;;;;2.10;1.90;;;21.10;66.50;;;;;;5052136;28;20226;-62
2023/04/21 06:57:24;;;;;;;2.42;2.22;;;21.10;65.90;;;;;;5047944;28;20772;-63
2023/04/21 06:59:51;;;;;;;2.55;2.35;;;21.20;65.60;;;;;;5047598;28;20221;-63
2023/04/21 07:02:18;;;;;;;2.10;1.90;;;21.20;65.40;;;;;;5047630;28;20202;-62
2023/04/21 07:04:44;;;;;;;2.95;2.67;;;21.20;65.30;;;;;;5045323;28;20609;-61
2023/04/21 07:07:13;;;;;;;1.92;1.77;;;21.20;65.40;;;;;;5054122;28;20609;-61
2023/04/21 07:09:39;;;;;;;2.33;2.20;;;21.20;65.50;;;;;;5064727;28;20203;-61
2023/04/21 07:12:06;;;;;;;2.25;2.05;;;21.20;65.60;;;;;;5052102;28;20195;-61
2023/04/21 07:14:33;;;;;;;1.75;1.63;;;21.20;65.50;;;;;;5051094;28;20249;-61
2023/04/21 07:16:59;;;;;;;1.60;1.50;;;21.30;65.70;;;;;;5048988;28;20219;-63
2023/04/21 07:19:26;;;;;;;2.05;1.85;;;21.30;65.70;;;;;;5050198;28;20195;-62
2023/04/21 07:21:53;;;;;;;1.75;1.60;;;21.30;65.60;;;;;;5053648;28;20243;-61
2023/04/21 07:24:21;;;;;;;2.00;1.90;;;21.30;65.60;;;;;;5049179;28;20245;-62
2023/04/21 07:26:48;;;;;;;1.70;1.60;;;21.30;65.60;;;;;;5050093;28;20207;-61
2023/04/21 07:29:14;;;;;;;1.80;1.70;;;21.30;65.60;;;;;;5053882;28;20211;-62
2023/04/21 07:31:41;;;;;;;2.22;2.03;;;21.30;65.60;;;;;;5050643;28;20582;-62
2023/04/21 07:34:08;;;;;;;2.25;2.05;;;21.30;65.20;;;;;;5051525;28;20191;-62
2023/04/21 07:36:34;;;;;;;2.50;2.30;;;21.30;65.00;;;;;;5049700;28;20253;-62
2023/04/21 07:39:02;;;;;;;4.38;2.45;;;21.30;65.00;;;;;;5048053;28;20223;-62
2023/04/21 07:41:30;;;;;;;3.17;2.67;;;21.30;65.00;;;;;;5048071;28;20222;-62
2023/04/21 07:43:57;;;;;;;2.60;2.40;;;21.30;64.90;;;;;;5050902;28;20199;-62
2023/04/21 07:46:28;;;;;;;2.90;2.70;;;21.30;65.00;;;;;;5049313;28;20285;-62
2023/04/21 07:48:55;;;;;;;2.65;2.10;;;21.30;64.80;;;;;;5049364;28;20194;-63
2023/04/21 07:51:22;;;;;;;2.78;2.55;;;21.30;65.20;;;;;;5054515;28;20551;-64
2023/04/21 07:53:49;;;;;;;3.70;2.50;;;21.30;65.10;;;;;;5049281;28;20210;-62
2023/04/21 07:56:16;;;;;;;3.40;2.00;;;21.30;65.00;;;;;;5054083;28;20501;-68
2023/04/21 07:58:44;;;;;;;2.30;2.10;;;21.40;65.00;;;;;;5053493;28;20195;-71
2023/04/21 08:01:11;;;;;;;2.25;1.95;;;21.40;65.00;;;;;;5051197;28;20198;-66
2023/04/21 08:03:37;;;;;;;3.95;2.50;;;21.40;65.10;;;;;;5050500;28;20190;-68
2023/04/21 08:06:04;;;;;;;3.70;3.30;;;21.40;65.00;;;;;;5053875;28;20200;-62
2023/04/21 08:08:31;;;;;;;2.60;2.40;;;21.40;65.00;;;;;;5049493;28;20191;-69
2023/04/21 08:10:58;;;;;;;2.85;2.65;;;21.40;65.20;;;;;;5053590;28;20468;-69
2023/04/21 08:13:24;;;;;;;2.28;2.08;;;21.40;65.30;;;;;;5054351;28;20200;-68
2023/04/21 08:15:52;;;;;;;2.95;2.33;;;21.40;65.30;;;;;;5050715;28;20223;-69
2023/04/21 08:18:19;;;;;;;2.78;2.58;;;21.40;65.20;;;;;;5051657;28;20203;-69
2023/04/21 08:20:46;;;;;;;2.38;2.17;;;21.40;65.10;;;;;;5051459;28;20191;-65
2023/04/21 08:23:13;;;;;;;2.55;2.35;;;21.40;65.20;;;;;;5053400;28;20254;-69
2023/04/21 08:25:40;;;;;;;6.00;2.97;;;21.40;65.20;;;;;;5060677;28;20203;-69
2023/04/21 08:28:07;;;;;;;2.13;1.95;;;21.40;65.20;;;;;;5064848;28;20710;-66
2023/04/21 08:30:33;;;;;;;3.17;2.95;;;21.40;65.30;;;;;;5049905;28;21360;-68
2023/04/21 08:33:01;;;;;;;2.90;2.63;;;21.40;65.20;;;;;;5055331;28;20317;-66
2023/04/21 08:35:28;;;;;;;2.58;2.38;;;21.50;65.40;;;;;;5054258;28;20249;-65
2023/04/21 08:37:55;;;;;;;2.60;2.40;;;21.50;65.40;;;;;;5050894;28;20198;-69
2023/04/21 08:40:26;;;;;;;2.70;2.50;;;21.50;65.50;;;;;;5058253;28;20199;-69
2023/04/21 08:42:53;;;;;;;4.95;2.72;;;21.50;65.50;;;;;;5052642;28;20297;-68
2023/04/21 08:45:20;;;;;;;6.80;2.50;;;21.50;65.40;;;;;;5050837;28;20206;-69
2023/04/21 08:47:49;;;;;;;2.20;1.83;;;21.50;65.40;;;;;;5052319;28;20461;-68
2023/04/21 08:50:17;;;;;;;3.13;2.85;;;21.50;65.40;;;;;;5054975;28;20580;-69
2023/04/21 08:52:44;;;;;;;2.75;2.55;;;21.50;65.50;;;;;;5050809;28;20420;-69
2023/04/21 08:55:12;;;;;;;2.70;2.43;;;21.50;65.50;;;;;;5050166;28;20192;-69
2023/04/21 08:57:39;;;;;;;2.75;2.55;;;21.50;65.50;;;;;;5051420;28;20548;-69
2023/04/21 09:00:07;;;;;;;2.80;2.57;;;21.50;65.60;;;;;;5045767;28;20195;-69
2023/04/21 09:02:34;;;;;;;5.70;5.10;;;21.50;65.50;;;;;;5048238;28;20461;-69
2023/04/21 09:05:00;;;;;;;4.30;3.90;;;21.50;65.50;;;;;;5051996;28;20457;-69
2023/04/21 09:07:33;;;;;;;4.80;4.40;;;21.50;65.60;;;;;;5060481;28;20211;-69
2023/04/21 09:10:00;;;;;;;3.93;3.00;;;21.50;65.60;;;;;;5049712;28;20773;-62
2023/04/21 09:12:28;;;;;;;7.00;3.50;;;21.50;65.80;;;;;;5053643;28;20861;-62
2023/04/21 09:14:56;;;;;;;3.85;2.85;;;21.60;65.70;;;;;;5042061;28;20460;-62
2023/04/21 09:17:31;;;;;;;5.45;2.95;;;21.60;65.90;;;;;;5045016;28;20215;-60
2023/04/21 09:19:57;;;;;;;3.38;3.08;;;21.70;66.10;;;;;;5044149;28;20554;-59
2023/04/21 09:22:28;;;;;;;3.40;3.10;;;21.70;66.20;;;;;;5051655;28;20309;-59
2023/04/21 09:24:59;;;;;;;3.58;3.28;;;21.80;66.30;;;;;;5049786;28;20489;-60
2023/04/21 09:27:26;;;;;;;5.90;2.80;;;21.80;66.40;;;;;;5041615;28;20785;-61
2023/04/21 09:29:53;;;;;;;4.33;3.40;;;21.80;66.50;;;;;;5043338;28;20553;-63
2023/04/21 09:32:20;;;;;;;3.00;2.70;;;21.90;66.60;;;;;;5044036;28;20454;-63
2023/04/21 09:34:47;;;;;;;4.63;2.77;;;21.90;66.60;;;;;;5047215;28;20869;-62
2023/04/21 09:37:14;;;;;;;3.37;3.07;;;21.90;66.60;;;;;;5042199;28;20489;-63
2023/04/21 09:39:45;;;;;;;4.50;2.80;;;21.90;66.80;;;;;;5053343;28;20453;-63
2023/04/21 09:42:13;;;;;;;2.93;2.47;;;21.90;66.70;;;;;;5044122;28;20462;-64
2023/04/21 09:44:40;;;;;;;2.63;2.40;;;22.00;66.80;;;;;;5040997;28;20458;-63
2023/04/21 09:47:10;;;;;;;2.90;2.60;;;22.00;66.90;;;;;;5048831;28;20462;-65
2023/04/21 09:49:43;;;;;;;3.13;2.93;;;22.00;66.90;;;;;;5052941;28;20504;-62
2023/04/21 09:52:11;;;;;;;3.10;2.90;;;22.10;67.00;;;;;;5057314;28;20457;-64
2023/04/21 09:54:45;;;;;;;4.50;2.97;;;22.10;66.90;;;;;;5051236;28;20595;-65
2023/04/21 09:57:17;;;;;;;4.03;2.97;;;22.00;66.80;;;;;;5051374;28;20480;-64
2023/04/21 09:59:46;;;;;;;3.07;2.77;;;22.10;66.90;;;;;;5052969;28;20532;-64
2023/04/21 10:02:13;;;;;;;3.07;2.77;;;22.10;66.90;;;;;;5058352;28;20445;-64
2023/04/21 10:04:41;;;;;;;3.10;2.90;;;22.10;67.80;;;;;;5058490;28;20454;-61
2023/04/21 10:07:10;;;;;;;2.37;2.13;;;22.20;67.00;;;;;;5052316;28;20961;-61
2023/04/21 10:09:41;;;;;;;2.60;2.40;;;22.10;67.00;;;;;;5052220;28;20516;-60
2023/04/21 10:12:09;;;;;;;4.10;3.40;;;22.10;66.90;;;;;;5052183;28;20461;-59
2023/04/21 10:14:37;;;;;;;8.00;2.80;;;22.20;67.00;;;;;;5051961;28;20532;-60
2023/04/21 10:17:04;;;;;;;4.77;2.80;;;22.20;67.10;;;;;;5056018;28;20556;-66
2023/04/21 10:19:35;;;;;;;4.03;2.70;;;22.20;67.20;;;;;;5051591;28;20453;-63
2023/04/21 10:22:02;;;;;;;4.63;2.60;;;22.20;67.10;;;;;;5055807;28;20472;-65
2023/04/21 10:24:29;;;;;;;2.87;2.47;;;22.30;67.10;;;;;;5053876;28;20938;-64
2023/04/21 10:27:00;;;;;;;3.00;2.80;;;22.30;67.20;;;;;;5051642;28;20611;-66
2023/04/21 10:29:31;;;;;;;2.53;2.33;;;22.30;67.10;;;;;;5051918;28;20469;-64
2023/04/21 10:31:59;;;;;;;2.90;2.63;;;22.40;67.30;;;;;;5050225;28;20822;-65
2023/04/21 10:34:34;;;;;;;2.90;2.60;;;22.40;67.20;;;;;;5047048;28;20982;-62
2023/04/21 10:37:24;;;;;;;2.40;2.20;;;22.40;67.10;;;;;;5042355;28;20476;-64
2023/04/21 10:39:55;;;;;;;2.30;2.10;;;22.50;67.10;;;;;;5042632;28;20460;-60
2023/04/21 10:42:40;;;;;;;2.80;2.33;;;22.50;67.20;;;;;;5052826;28;20473;-67
2023/04/21 10:45:09;;;;;;;3.10;2.83;;;22.50;67.10;;;;;;5049726;28;20457;-66
2023/04/21 10:47:43;;;;;;;2.73;2.53;;;22.50;67.10;;;;;;5053737;28;20468;-65
2023/04/21 10:50:25;;;;;;;3.07;2.87;;;22.60;67.20;;;;;;5064267;28;20462;-62
2023/04/21 10:52:57;;;;;;;3.67;2.50;;;22.60;67.10;;;;;;5064179;28;20452;-64
2023/04/21 10:55:27;;;;;;;2.23;2.03;;;22.70;67.20;;;;;;5060526;28;20457;-58
2023/04/21 10:57:54;;;;;;;3.00;2.67;;;22.70;67.20;;;;;;5056811;28;20488;-65
2023/04/21 11:00:22;;;;;;;2.10;2.00;;;22.70;67.10;;;;;;5061221;28;20466;-63
2023/04/21 11:02:58;;;;;;;3.13;2.47;;;22.70;67.10;;;;;;5061719;28;20436;-64
2023/04/21 11:05:35;;;;;;;2.80;2.60;;;22.70;67.10;;;;;;5055856;28;20453;-66
2023/04/21 11:08:07;;;;;;;2.70;2.50;;;22.70;67.00;;;;;;5056914;28;20471;-65
2023/04/21 11:10:52;;;;;;;3.03;2.67;;;22.70;67.10;;;;;;5064192;28;20951;-67
2023/04/21 11:13:23;;;;;;;2.87;2.67;;;22.70;67.10;;;;;;5051210;28;21143;-68
2023/04/21 11:16:01;;;;;;;3.60;3.30;;;22.60;67.10;;;;;;5056114;28;20453;-60
2023/04/21 11:18:40;;;;;;;2.47;1.60;;;22.70;67.10;;;;;;5054679;28;20884;-67
2023/04/21 11:21:08;;;;;;;6.77;2.63;;;22.70;67.10;;;;;;5054126;28;20448;-65
2023/04/21 11:23:35;;;;;;;2.30;2.10;;;22.70;67.10;;;;;;5058378;28;20588;-67
2023/04/21 11:26:02;;;;;;;4.60;2.30;;;22.70;67.10;;;;;;5060328;28;20452;-65
2023/04/21 11:28:28;;;;;;;2.47;2.27;;;22.80;67.20;;;;;;5054460;28;20465;-65
2023/04/21 11:30:55;;;;;;;4.40;2.67;;;22.80;67.10;;;;;;5057885;28;20526;-68
2023/04/21 11:33:22;;;;;;;2.77;2.53;;;22.80;67.10;;;;;;5063240;28;20480;-64
2023/04/21 11:35:50;;;;;;;2.53;2.33;;;22.80;67.10;;;;;;5060998;28;20937;-64
2023/04/21 11:38:17;;;;;;;2.27;2.07;;;22.80;67.10;;;;;;5052978;28;20952;-63
2023/04/21 11:40:45;;;;;;;2.47;1.70;;;22.80;67.10;;;;;;5055529;28;20494;-63
2023/04/21 11:43:12;;;;;;;2.30;2.10;;;22.90;67.10;;;;;;5053879;28;20473;-64
2023/04/21 11:45:40;;;;;;;2.23;2.03;;;22.80;67.00;;;;;;5052470;28;20972;-62
2023/04/21 11:48:14;;;;;;;2.20;2.00;;;22.90;67.00;;;;;;5063346;28;20457;-62
2023/04/21 11:50:47;;;;;;;2.30;2.10;;;22.90;67.00;;;;;;5056675;28;20883;-64
2023/04/21 11:53:16;;;;;;;2.13;2.03;;;22.90;67.00;;;;;;5054272;28;20969;-66
2023/04/21 11:55:44;;;;;;;2.17;1.93;;;22.90;67.00;;;;;;5054434;28;20544;-63
2023/04/21 11:58:14;;;;;;;3.20;2.40;;;22.90;66.90;;;;;;5051430;28;20547;-66
2023/04/21 12:00:40;;;;;;;2.13;1.93;;;23.00;67.10;;;;;;5050418;28;20468;-65
2023/04/21 12:03:09;;;;;;;2.37;2.03;;;23.00;67.00;;;;;;5051671;28;20496;-62
2023/04/21 12:05:36;;;;;;;2.47;2.00;;;23.00;67.00;;;;;;5053674;28;20540;-68
2023/04/21 12:08:05;;;;;;;1.90;1.80;;;23.00;67.00;;;;;;5050925;28;20942;-71
2023/04/21 12:10:33;;;;;;;2.27;2.07;;;23.10;67.10;;;;;;5059306;28;20540;-68
2023/04/21 12:12:59;;;;;;;2.93;2.63;;;23.10;67.10;;;;;;5056729;28;20446;-67
2023/04/21 12:15:29;;;;;;;2.60;2.40;;;23.00;66.80;;;;;;5058977;28;20461;-69
2023/04/21 12:17:56;;;;;;;2.43;2.23;;;22.90;66.90;;;;;;5057205;28;20477;-66
2023/04/21 12:20:25;;;;;;;2.13;1.93;;;23.00;67.80;;;;;;5057578;28;20546;-66
2023/04/21 12:22:52;;;;;;;2.97;1.93;;;23.00;67.00;;;;;;5053375;28;20484;-64
2023/04/21 12:25:19;;;;;;;3.90;2.10;;;23.10;67.00;;;;;;5054114;28;20454;-63
2023/04/21 12:27:50;;;;;;;3.03;2.13;;;23.10;67.10;;;;;;5053268;28;20462;-63
2023/04/21 12:30:17;;;;;;;3.00;2.30;;;23.10;67.10;;;;;;5050759;28;20458;-58
2023/04/21 12:32:44;;;;;;;2.60;2.40;;;23.10;67.00;;;;;;5052349;28;20841;-63
2023/04/21 12:35:11;;;;;;;2.27;2.07;;;23.10;67.00;;;;;;5053859;28;20884;-61
2023/04/21 12:37:37;;;;;;;2.07;1.87;;;23.10;67.00;;;;;;5055880;28;20526;-60
2023/04/21 12:40:05;;;;;;;2.50;2.30;;;23.10;66.90;;;;;;5052097;28;20461;-61
2023/04/21 12:42:32;;;;;;;2.10;1.77;;;23.20;67.00;;;;;;5064309;28;20470;-61
2023/04/21 12:45:00;;;;;;;2.20;2.00;;;23.20;67.10;;;;;;5056320;28;20536;-65
2023/04/21 12:47:27;;;;;;;2.13;1.93;;;23.20;67.00;;;;;;5056747;28;20471;-64
2023/04/21 12:49:53;;;;;;;2.20;2.00;;;23.20;67.00;;;;;;5049611;28;20473;-67
2023/04/21 12:52:20;;;;;;;1.63;1.53;;;23.20;67.00;;;;;;5053015;28;20461;-69